Edenville, Ohio
Current Conditions -  °F | °C
As of 8:53 PM on Wednesday 22 Oct 2014 (Local Time) from KMNN Reporting Station
Overcast Overcast  
Wind Chill: 47°   Ceiling: 3100
Heat Index: 49°   Visibility: 10mi
Dew Point: 41°   Wind: 6mph
Humidity: 74%   Direction: 350°N
Pressure: 30.26"   Gusts: NA
Location:  40.8054°N, 83.1316°W
Report Text: KMNN 230053Z AUTO 35005KT 10SM OVC031 09/05 A3026 RMK AO2 SLP253 T00940050 TSNO
Loading
Personal Weather Stations






























Interactive Weather Map
Tropical Storm Tracking
New forecast layout! Learn more

10-Day Weather Forecast

Advertisements
Track Severe Weather on mobile